sensor_id;sensor_type;location;lat;lon;timestamp;P1;durP1;ratioP1;P2;durP2;ratioP2
74538;SDS011;66042;51.090;-115.340;2023-02-15T00:02:00;7.00;;;3.00;;
74538;SDS011;66042;51.090;-115.340;2023-02-15T00:04:28;6.10;;;3.10;;
74538;SDS011;66042;51.090;-115.340;2023-02-15T00:07:15;7.00;;;2.70;;
74538;SDS011;66042;51.090;-115.340;2023-02-15T00:09:45;7.70;;;2.80;;
74538;SDS011;66042;51.090;-115.340;2023-02-15T00:12:12;8.50;;;3.60;;
74538;SDS011;66042;51.090;-115.340;2023-02-15T00:14:40;8.00;;;3.40;;
74538;SDS011;66042;51.090;-115.340;2023-02-15T00:17:08;5.90;;;2.60;;
74538;SDS011;66042;51.090;-115.340;2023-02-15T00:19:34;8.20;;;2.80;;
74538;SDS011;66042;51.090;-115.340;2023-02-15T00:22:02;6.20;;;2.90;;
74538;SDS011;66042;51.090;-115.340;2023-02-15T00:24:29;9.40;;;3.30;;
74538;SDS011;66042;51.090;-115.340;2023-02-15T00:26:56;5.50;;;3.10;;
74538;SDS011;66042;51.090;-115.340;2023-02-15T00:29:23;7.70;;;3.00;;
74538;SDS011;66042;51.090;-115.340;2023-02-15T00:31:50;8.20;;;2.90;;
74538;SDS011;66042;51.090;-115.340;2023-02-15T00:34:20;9.10;;;4.30;;
74538;SDS011;66042;51.090;-115.340;2023-02-15T00:36:50;6.30;;;2.80;;
74538;SDS011;66042;51.090;-115.340;2023-02-15T00:39:17;7.80;;;4.10;;
74538;SDS011;66042;51.090;-115.340;2023-02-15T00:41:45;8.60;;;3.70;;
74538;SDS011;66042;51.090;-115.340;2023-02-15T00:44:13;10.20;;;4.10;;
74538;SDS011;66042;51.090;-115.340;2023-02-15T00:46:41;6.30;;;3.20;;
74538;SDS011;66042;51.090;-115.340;2023-02-15T00:49:08;7.40;;;3.90;;
74538;SDS011;66042;51.090;-115.340;2023-02-15T00:51:36;7.70;;;2.70;;
74538;SDS011;66042;51.090;-115.340;2023-02-15T00:54:03;9.80;;;3.80;;
74538;SDS011;66042;51.090;-115.340;2023-02-15T00:56:30;7.20;;;3.20;;
74538;SDS011;66042;51.090;-115.340;2023-02-15T00:58:57;9.20;;;3.20;;
74538;SDS011;66042;51.090;-115.340;2023-02-15T01:01:24;7.20;;;3.40;;
74538;SDS011;66042;51.090;-115.340;2023-02-15T01:03:51;10.30;;;4.80;;
74538;SDS011;66042;51.090;-115.340;2023-02-15T01:06:19;8.90;;;4.30;;
74538;SDS011;66042;51.090;-115.340;2023-02-15T01:08:46;8.80;;;2.80;;
74538;SDS011;66042;51.090;-115.340;2023-02-15T01:11:15;8.60;;;4.00;;
74538;SDS011;66042;51.090;-115.340;2023-02-15T01:13:52;8.20;;;3.60;;
74538;SDS011;66042;51.090;-115.340;2023-02-15T01:16:22;9.00;;;2.80;;
74538;SDS011;66042;51.090;-115.340;2023-02-15T01:18:50;6.90;;;3.40;;
74538;SDS011;66042;51.090;-115.340;2023-02-15T01:21:20;7.60;;;3.40;;
74538;SDS011;66042;51.090;-115.340;2023-02-15T01:23:49;7.40;;;3.00;;
74538;SDS011;66042;51.090;-115.340;2023-02-15T01:26:16;7.80;;;3.00;;
74538;SDS011;66042;51.090;-115.340;2023-02-15T01:28:44;8.90;;;2.90;;
74538;SDS011;66042;51.090;-115.340;2023-02-15T01:31:15;6.90;;;3.00;;
74538;SDS011;66042;51.090;-115.340;2023-02-15T01:33:43;5.50;;;2.80;;
74538;SDS011;66042;51.090;-115.340;2023-02-15T01:36:11;9.10;;;3.00;;
74538;SDS011;66042;51.090;-115.340;2023-02-15T01:38:38;8.60;;;2.60;;
74538;SDS011;66042;51.090;-115.340;2023-02-15T01:41:08;8.00;;;2.50;;
74538;SDS011;66042;51.090;-115.340;2023-02-15T01:43:57;6.60;;;2.70;;
74538;SDS011;66042;51.090;-115.340;2023-02-15T01:49:19;4.90;;;2.50;;
74538;SDS011;66042;51.090;-115.340;2023-02-15T01:51:50;5.90;;;2.80;;
74538;SDS011;66042;51.090;-115.340;2023-02-15T01:54:23;4.80;;;2.50;;
74538;SDS011;66042;51.090;-115.340;2023-02-15T01:57:07;5.80;;;2.40;;
74538;SDS011;66042;51.090;-115.340;2023-02-15T01:59:39;7.00;;;3.20;;
74538;SDS011;66042;51.090;-115.340;2023-02-15T02:02:13;15.70;;;3.30;;
74538;SDS011;66042;51.090;-115.340;2023-02-15T02:04:54;6.10;;;3.10;;
74538;SDS011;66042;51.090;-115.340;2023-02-15T02:07:27;13.10;;;3.60;;
74538;SDS011;66042;51.090;-115.340;2023-02-15T02:09:56;7.90;;;3.20;;
74538;SDS011;66042;51.090;-115.340;2023-02-15T02:12:26;12.20;;;2.50;;
74538;SDS011;66042;51.090;-115.340;2023-02-15T02:14:53;9.10;;;2.80;;
74538;SDS011;66042;51.090;-115.340;2023-02-15T02:38:49;5.30;;;2.10;;
74538;SDS011;66042;51.090;-115.340;2023-02-15T02:45:05;5.80;;;2.30;;
74538;SDS011;66042;51.090;-115.340;2023-02-15T02:47:38;6.50;;;2.10;;
74538;SDS011;66042;51.090;-115.340;2023-02-15T02:50:21;4.30;;;2.00;;
74538;SDS011;66042;51.090;-115.340;2023-02-15T02:52:55;10.10;;;2.30;;
74538;SDS011;66042;51.090;-115.340;2023-02-15T02:55:36;9.80;;;3.00;;
74538;SDS011;66042;51.090;-115.340;2023-02-15T02:58:31;14.20;;;4.20;;
74538;SDS011;66042;51.090;-115.340;2023-02-15T03:01:08;9.80;;;3.40;;
74538;SDS011;66042;51.090;-115.340;2023-02-15T03:03:47;7.70;;;3.00;;
74538;SDS011;66042;51.090;-115.340;2023-02-15T03:06:44;12.80;;;3.30;;
74538;SDS011;66042;51.090;-115.340;2023-02-15T03:09:24;5.80;;;2.50;;
74538;SDS011;66042;51.090;-115.340;2023-02-15T03:12:24;4.30;;;1.70;;
74538;SDS011;66042;51.090;-115.340;2023-02-15T03:17:37;5.30;;;1.60;;
74538;SDS011;66042;51.090;-115.340;2023-02-15T03:20:22;4.90;;;1.40;;
74538;SDS011;66042;51.090;-115.340;2023-02-15T03:22:59;3.90;;;1.40;;
74538;SDS011;66042;51.090;-115.340;2023-02-15T03:25:32;7.10;;;1.80;;
74538;SDS011;66042;51.090;-115.340;2023-02-15T03:28:08;5.90;;;2.10;;
74538;SDS011;66042;51.090;-115.340;2023-02-15T03:30:45;6.20;;;2.30;;
74538;SDS011;66042;51.090;-115.340;2023-02-15T03:33:26;5.40;;;2.20;;
74538;SDS011;66042;51.090;-115.340;2023-02-15T03:36:04;4.50;;;2.20;;
74538;SDS011;66042;51.090;-115.340;2023-02-15T03:39:08;6.00;;;1.80;;
74538;SDS011;66042;51.090;-115.340;2023-02-15T03:41:42;5.50;;;2.00;;
74538;SDS011;66042;51.090;-115.340;2023-02-15T03:44:52;4.30;;;2.00;;
74538;SDS011;66042;51.090;-115.340;2023-02-15T03:47:25;4.10;;;1.30;;
74538;SDS011;66042;51.090;-115.340;2023-02-15T03:50:00;5.70;;;1.70;;
74538;SDS011;66042;51.090;-115.340;2023-02-15T03:52:29;6.70;;;1.40;;
74538;SDS011;66042;51.090;-115.340;2023-02-15T03:54:58;3.40;;;1.80;;
74538;SDS011;66042;51.090;-115.340;2023-02-15T03:57:27;10.60;;;2.20;;
74538;SDS011;66042;51.090;-115.340;2023-02-15T04:00:22;6.60;;;2.10;;
74538;SDS011;66042;51.090;-115.340;2023-02-15T04:06:25;6.30;;;2.40;;
74538;SDS011;66042;51.090;-115.340;2023-02-15T04:08:53;3.80;;;2.10;;
74538;SDS011;66042;51.090;-115.340;2023-02-15T04:11:38;5.50;;;2.10;;
74538;SDS011;66042;51.090;-115.340;2023-02-15T04:14:05;6.50;;;2.70;;
74538;SDS011;66042;51.090;-115.340;2023-02-15T04:16:51;7.80;;;3.60;;
74538;SDS011;66042;51.090;-115.340;2023-02-15T04:19:18;8.00;;;3.70;;
74538;SDS011;66042;51.090;-115.340;2023-02-15T04:22:04;12.20;;;3.70;;
74538;SDS011;66042;51.090;-115.340;2023-02-15T04:24:49;16.90;;;5.90;;
74538;SDS011;66042;51.090;-115.340;2023-02-15T04:27:36;12.80;;;5.00;;
74538;SDS011;66042;51.090;-115.340;2023-02-15T04:30:04;8.70;;;4.40;;
74538;SDS011;66042;51.090;-115.340;2023-02-15T04:32:32;11.40;;;4.70;;
74538;SDS011;66042;51.090;-115.340;2023-02-15T04:35:00;12.10;;;3.80;;
74538;SDS011;66042;51.090;-115.340;2023-02-15T04:37:27;6.60;;;2.20;;
74538;SDS011;66042;51.090;-115.340;2023-02-15T04:39:55;8.80;;;3.00;;
74538;SDS011;66042;51.090;-115.340;2023-02-15T04:42:27;7.50;;;3.20;;
74538;SDS011;66042;51.090;-115.340;2023-02-15T04:44:54;10.70;;;3.20;;
74538;SDS011;66042;51.090;-115.340;2023-02-15T04:47:21;9.20;;;2.40;;
74538;SDS011;66042;51.090;-115.340;2023-02-15T04:49:48;3.80;;;1.80;;
74538;SDS011;66042;51.090;-115.340;2023-02-15T04:52:15;11.20;;;2.30;;
74538;SDS011;66042;51.090;-115.340;2023-02-15T04:54:45;9.60;;;2.20;;
74538;SDS011;66042;51.090;-115.340;2023-02-15T04:57:12;5.20;;;2.50;;
74538;SDS011;66042;51.090;-115.340;2023-02-15T04:59:40;6.50;;;2.40;;
74538;SDS011;66042;51.090;-115.340;2023-02-15T05:02:07;6.40;;;2.20;;
74538;SDS011;66042;51.090;-115.340;2023-02-15T05:04:34;5.30;;;2.20;;
74538;SDS011;66042;51.090;-115.340;2023-02-15T05:07:01;7.10;;;1.70;;
74538;SDS011;66042;51.090;-115.340;2023-02-15T05:09:28;8.90;;;2.20;;
74538;SDS011;66042;51.090;-115.340;2023-02-15T05:11:56;9.70;;;2.10;;
74538;SDS011;66042;51.090;-115.340;2023-02-15T05:14:22;6.10;;;2.20;;
74538;SDS011;66042;51.090;-115.340;2023-02-15T05:16:49;3.40;;;1.80;;
74538;SDS011;66042;51.090;-115.340;2023-02-15T05:19:16;10.10;;;2.20;;
74538;SDS011;66042;51.090;-115.340;2023-02-15T05:21:43;7.40;;;2.90;;
74538;SDS011;66042;51.090;-115.340;2023-02-15T05:24:10;4.30;;;2.20;;
74538;SDS011;66042;51.090;-115.340;2023-02-15T05:26:56;8.10;;;2.10;;
74538;SDS011;66042;51.090;-115.340;2023-02-15T05:29:41;9.30;;;2.00;;
74538;SDS011;66042;51.090;-115.340;2023-02-15T05:32:08;4.40;;;2.00;;
74538;SDS011;66042;51.090;-115.340;2023-02-15T05:34:36;5.40;;;2.10;;
74538;SDS011;66042;51.090;-115.340;2023-02-15T05:37:03;5.50;;;2.40;;
74538;SDS011;66042;51.090;-115.340;2023-02-15T05:39:30;4.90;;;1.90;;
74538;SDS011;66042;51.090;-115.340;2023-02-15T05:42:00;9.90;;;2.70;;
74538;SDS011;66042;51.090;-115.340;2023-02-15T05:44:27;5.90;;;1.90;;
74538;SDS011;66042;51.090;-115.340;2023-02-15T05:46:55;7.10;;;2.10;;
74538;SDS011;66042;51.090;-115.340;2023-02-15T05:49:22;11.00;;;2.30;;
74538;SDS011;66042;51.090;-115.340;2023-02-15T05:51:49;4.80;;;2.10;;
74538;SDS011;66042;51.090;-115.340;2023-02-15T05:54:16;4.00;;;1.70;;
74538;SDS011;66042;51.090;-115.340;2023-02-15T05:56:43;7.60;;;2.10;;
74538;SDS011;66042;51.090;-115.340;2023-02-15T05:59:10;12.60;;;2.90;;
74538;SDS011;66042;51.090;-115.340;2023-02-15T06:01:38;5.90;;;2.10;;
74538;SDS011;66042;51.090;-115.340;2023-02-15T06:04:05;5.00;;;1.80;;
74538;SDS011;66042;51.090;-115.340;2023-02-15T06:06:32;5.20;;;2.60;;
74538;SDS011;66042;51.090;-115.340;2023-02-15T06:09:00;6.20;;;2.10;;
74538;SDS011;66042;51.090;-115.340;2023-02-15T06:11:27;4.30;;;2.20;;
74538;SDS011;66042;51.090;-115.340;2023-02-15T06:13:54;7.20;;;2.40;;
74538;SDS011;66042;51.090;-115.340;2023-02-15T06:16:22;4.50;;;1.80;;
74538;SDS011;66042;51.090;-115.340;2023-02-15T06:18:49;4.30;;;2.10;;
74538;SDS011;66042;51.090;-115.340;2023-02-15T06:21:15;10.70;;;2.30;;
74538;SDS011;66042;51.090;-115.340;2023-02-15T06:23:43;4.90;;;2.40;;
74538;SDS011;66042;51.090;-115.340;2023-02-15T06:26:10;3.70;;;1.80;;
74538;SDS011;66042;51.090;-115.340;2023-02-15T06:28:37;7.10;;;2.40;;
74538;SDS011;66042;51.090;-115.340;2023-02-15T06:31:04;7.20;;;2.90;;
74538;SDS011;66042;51.090;-115.340;2023-02-15T06:33:31;7.80;;;1.90;;
74538;SDS011;66042;51.090;-115.340;2023-02-15T06:36:00;4.70;;;2.30;;
74538;SDS011;66042;51.090;-115.340;2023-02-15T06:38:27;6.50;;;2.10;;
74538;SDS011;66042;51.090;-115.340;2023-02-15T06:40:54;5.00;;;1.50;;
74538;SDS011;66042;51.090;-115.340;2023-02-15T06:43:21;3.90;;;1.40;;
74538;SDS011;66042;51.090;-115.340;2023-02-15T06:45:48;5.20;;;1.70;;
74538;SDS011;66042;51.090;-115.340;2023-02-15T06:48:15;5.40;;;2.10;;
74538;SDS011;66042;51.090;-115.340;2023-02-15T06:50:42;4.30;;;1.60;;
74538;SDS011;66042;51.090;-115.340;2023-02-15T06:53:09;4.10;;;1.80;;
74538;SDS011;66042;51.090;-115.340;2023-02-15T06:55:36;4.20;;;1.70;;
74538;SDS011;66042;51.090;-115.340;2023-02-15T06:58:03;4.10;;;1.30;;
74538;SDS011;66042;51.090;-115.340;2023-02-15T07:00:30;5.90;;;1.60;;
74538;SDS011;66042;51.090;-115.340;2023-02-15T07:02:58;4.80;;;1.10;;
74538;SDS011;66042;51.090;-115.340;2023-02-15T07:05:28;3.70;;;1.40;;
74538;SDS011;66042;51.090;-115.340;2023-02-15T07:07:57;4.00;;;1.30;;
74538;SDS011;66042;51.090;-115.340;2023-02-15T07:10:25;2.90;;;1.30;;
74538;SDS011;66042;51.090;-115.340;2023-02-15T07:12:53;3.70;;;1.10;;
74538;SDS011;66042;51.090;-115.340;2023-02-15T07:15:20;4.00;;;1.60;;
74538;SDS011;66042;51.090;-115.340;2023-02-15T07:17:47;2.50;;;1.10;;
74538;SDS011;66042;51.090;-115.340;2023-02-15T07:20:20;2.30;;;1.40;;
74538;SDS011;66042;51.090;-115.340;2023-02-15T07:22:48;4.70;;;1.00;;
74538;SDS011;66042;51.090;-115.340;2023-02-15T07:25:16;1.90;;;1.00;;
74538;SDS011;66042;51.090;-115.340;2023-02-15T07:27:44;1.00;;;0.60;;
74538;SDS011;66042;51.090;-115.340;2023-02-15T07:30:13;1.90;;;1.30;;
74538;SDS011;66042;51.090;-115.340;2023-02-15T07:32:42;1.80;;;0.60;;
74538;SDS011;66042;51.090;-115.340;2023-02-15T07:35:28;1.90;;;1.30;;
74538;SDS011;66042;51.090;-115.340;2023-02-15T07:37:55;2.90;;;1.00;;
74538;SDS011;66042;51.090;-115.340;2023-02-15T07:40:22;2.20;;;1.30;;
74538;SDS011;66042;51.090;-115.340;2023-02-15T07:42:49;1.60;;;0.70;;
74538;SDS011;66042;51.090;-115.340;2023-02-15T07:45:19;1.80;;;0.90;;
74538;SDS011;66042;51.090;-115.340;2023-02-15T07:47:46;1.10;;;0.70;;
74538;SDS011;66042;51.090;-115.340;2023-02-15T07:50:13;1.70;;;1.10;;
74538;SDS011;66042;51.090;-115.340;2023-02-15T07:52:40;1.40;;;0.70;;
74538;SDS011;66042;51.090;-115.340;2023-02-15T07:55:07;2.70;;;0.70;;
74538;SDS011;66042;51.090;-115.340;2023-02-15T07:57:35;4.00;;;0.90;;
74538;SDS011;66042;51.090;-115.340;2023-02-15T08:00:03;2.20;;;0.70;;
74538;SDS011;66042;51.090;-115.340;2023-02-15T08:02:30;1.50;;;0.80;;
74538;SDS011;66042;51.090;-115.340;2023-02-15T08:04:58;1.20;;;0.70;;
74538;SDS011;66042;51.090;-115.340;2023-02-15T08:07:25;2.50;;;0.60;;
74538;SDS011;66042;51.090;-115.340;2023-02-15T08:09:51;1.00;;;0.70;;
74538;SDS011;66042;51.090;-115.340;2023-02-15T08:12:19;2.00;;;1.20;;
74538;SDS011;66042;51.090;-115.340;2023-02-15T08:14:46;1.20;;;0.90;;
74538;SDS011;66042;51.090;-115.340;2023-02-15T08:17:13;1.40;;;0.70;;
74538;SDS011;66042;51.090;-115.340;2023-02-15T08:19:40;1.60;;;0.70;;
74538;SDS011;66042;51.090;-115.340;2023-02-15T08:22:12;0.90;;;0.50;;
74538;SDS011;66042;51.090;-115.340;2023-02-15T08:24:40;1.00;;;0.70;;
74538;SDS011;66042;51.090;-115.340;2023-02-15T08:27:09;1.00;;;0.50;;
74538;SDS011;66042;51.090;-115.340;2023-02-15T08:29:37;1.40;;;0.60;;
74538;SDS011;66042;51.090;-115.340;2023-02-15T08:32:07;1.40;;;0.50;;
74538;SDS011;66042;51.090;-115.340;2023-02-15T08:34:39;0.90;;;0.60;;
74538;SDS011;66042;51.090;-115.340;2023-02-15T08:37:07;1.50;;;0.80;;
74538;SDS011;66042;51.090;-115.340;2023-02-15T08:39:35;1.30;;;0.80;;
74538;SDS011;66042;51.090;-115.340;2023-02-15T08:42:02;1.20;;;0.90;;
74538;SDS011;66042;51.090;-115.340;2023-02-15T08:44:29;1.40;;;0.80;;
74538;SDS011;66042;51.090;-115.340;2023-02-15T08:46:56;2.10;;;0.60;;
74538;SDS011;66042;51.090;-115.340;2023-02-15T08:49:28;1.20;;;0.80;;
74538;SDS011;66042;51.090;-115.340;2023-02-15T08:51:55;1.50;;;1.10;;
74538;SDS011;66042;51.090;-115.340;2023-02-15T08:54:22;1.80;;;0.90;;
74538;SDS011;66042;51.090;-115.340;2023-02-15T08:56:50;1.10;;;0.50;;
74538;SDS011;66042;51.090;-115.340;2023-02-15T08:59:19;1.90;;;1.00;;
74538;SDS011;66042;51.090;-115.340;2023-02-15T09:01:49;1.40;;;0.80;;
74538;SDS011;66042;51.090;-115.340;2023-02-15T09:04:17;1.40;;;0.80;;
74538;SDS011;66042;51.090;-115.340;2023-02-15T09:06:46;1.20;;;1.00;;
74538;SDS011;66042;51.090;-115.340;2023-02-15T09:09:14;2.50;;;0.80;;
74538;SDS011;66042;51.090;-115.340;2023-02-15T09:11:44;1.50;;;0.40;;
74538;SDS011;66042;51.090;-115.340;2023-02-15T09:14:15;1.50;;;0.90;;
74538;SDS011;66042;51.090;-115.340;2023-02-15T09:16:46;1.50;;;1.00;;
74538;SDS011;66042;51.090;-115.340;2023-02-15T09:19:16;1.40;;;0.70;;
74538;SDS011;66042;51.090;-115.340;2023-02-15T09:21:45;1.40;;;0.80;;
74538;SDS011;66042;51.090;-115.340;2023-02-15T09:24:15;1.80;;;0.70;;
74538;SDS011;66042;51.090;-115.340;2023-02-15T09:26:46;1.70;;;0.70;;
74538;SDS011;66042;51.090;-115.340;2023-02-15T09:29:14;1.60;;;0.80;;
74538;SDS011;66042;51.090;-115.340;2023-02-15T09:31:48;1.30;;;0.90;;
74538;SDS011;66042;51.090;-115.340;2023-02-15T09:34:18;1.40;;;0.90;;
74538;SDS011;66042;51.090;-115.340;2023-02-15T09:36:46;1.30;;;0.70;;
74538;SDS011;66042;51.090;-115.340;2023-02-15T09:42:20;1.00;;;0.80;;
74538;SDS011;66042;51.090;-115.340;2023-02-15T09:48:39;1.10;;;0.50;;
74538;SDS011;66042;51.090;-115.340;2023-02-15T09:51:14;1.40;;;0.90;;
74538;SDS011;66042;51.090;-115.340;2023-02-15T09:56:48;2.70;;;0.70;;
74538;SDS011;66042;51.090;-115.340;2023-02-15T10:02:56;1.30;;;0.80;;
74538;SDS011;66042;51.090;-115.340;2023-02-15T10:09:07;1.00;;;0.60;;
74538;SDS011;66042;51.090;-115.340;2023-02-15T10:27:12;1.10;;;0.90;;
74538;SDS011;66042;51.090;-115.340;2023-02-15T10:30:11;0.90;;;0.50;;
74538;SDS011;66042;51.090;-115.340;2023-02-15T10:38:34;3.60;;;0.90;;
74538;SDS011;66042;51.090;-115.340;2023-02-15T10:41:23;4.40;;;1.10;;
74538;SDS011;66042;51.090;-115.340;2023-02-15T10:50:46;2.70;;;0.70;;
74538;SDS011;66042;51.090;-115.340;2023-02-15T10:57:17;1.00;;;0.60;;
74538;SDS011;66042;51.090;-115.340;2023-02-15T11:02:45;1.40;;;0.90;;
74538;SDS011;66042;51.090;-115.340;2023-02-15T11:08:44;1.00;;;0.60;;
74538;SDS011;66042;51.090;-115.340;2023-02-15T11:11:29;1.50;;;0.80;;
74538;SDS011;66042;51.090;-115.340;2023-02-15T11:14:05;1.20;;;0.70;;
74538;SDS011;66042;51.090;-115.340;2023-02-15T11:17:02;1.90;;;0.70;;
74538;SDS011;66042;51.090;-115.340;2023-02-15T11:19:39;1.10;;;0.80;;
74538;SDS011;66042;51.090;-115.340;2023-02-15T11:22:14;1.80;;;0.70;;
74538;SDS011;66042;51.090;-115.340;2023-02-15T11:24:43;1.30;;;0.90;;
74538;SDS011;66042;51.090;-115.340;2023-02-15T11:27:22;1.10;;;0.90;;
74538;SDS011;66042;51.090;-115.340;2023-02-15T11:30:09;1.00;;;0.70;;
74538;SDS011;66042;51.090;-115.340;2023-02-15T11:32:45;1.00;;;0.80;;
74538;SDS011;66042;51.090;-115.340;2023-02-15T11:35:41;2.40;;;0.90;;
74538;SDS011;66042;51.090;-115.340;2023-02-15T11:38:31;1.90;;;1.00;;
74538;SDS011;66042;51.090;-115.340;2023-02-15T11:41:11;1.20;;;0.80;;
74538;SDS011;66042;51.090;-115.340;2023-02-15T11:43:49;0.90;;;0.60;;
74538;SDS011;66042;51.090;-115.340;2023-02-15T11:46:23;1.20;;;0.70;;
74538;SDS011;66042;51.090;-115.340;2023-02-15T11:48:50;1.40;;;0.60;;
74538;SDS011;66042;51.090;-115.340;2023-02-15T11:51:21;1.40;;;0.80;;
74538;SDS011;66042;51.090;-115.340;2023-02-15T11:53:49;1.30;;;0.70;;
74538;SDS011;66042;51.090;-115.340;2023-02-15T11:56:21;1.50;;;0.80;;
74538;SDS011;66042;51.090;-115.340;2023-02-15T11:58:54;1.70;;;0.50;;
74538;SDS011;66042;51.090;-115.340;2023-02-15T12:01:43;1.10;;;0.60;;
74538;SDS011;66042;51.090;-115.340;2023-02-15T12:04:29;0.90;;;0.70;;
74538;SDS011;66042;51.090;-115.340;2023-02-15T12:07:27;1.90;;;1.00;;
74538;SDS011;66042;51.090;-115.340;2023-02-15T12:15:46;1.00;;;0.60;;
74538;SDS011;66042;51.090;-115.340;2023-02-15T12:18:34;1.80;;;1.00;;
74538;SDS011;66042;51.090;-115.340;2023-02-15T12:21:13;1.60;;;0.80;;
74538;SDS011;66042;51.090;-115.340;2023-02-15T12:23:56;1.40;;;1.10;;
74538;SDS011;66042;51.090;-115.340;2023-02-15T12:26:34;1.50;;;0.60;;
74538;SDS011;66042;51.090;-115.340;2023-02-15T12:29:16;1.00;;;0.60;;
74538;SDS011;66042;51.090;-115.340;2023-02-15T12:31:50;1.00;;;0.70;;
74538;SDS011;66042;51.090;-115.340;2023-02-15T12:34:22;1.00;;;0.60;;
74538;SDS011;66042;51.090;-115.340;2023-02-15T12:36:57;0.90;;;0.50;;
74538;SDS011;66042;51.090;-115.340;2023-02-15T12:39:34;1.40;;;0.90;;
74538;SDS011;66042;51.090;-115.340;2023-02-15T12:42:04;1.40;;;0.60;;
74538;SDS011;66042;51.090;-115.340;2023-02-15T12:44:55;1.30;;;1.00;;
74538;SDS011;66042;51.090;-115.340;2023-02-15T12:47:22;1.40;;;0.80;;
74538;SDS011;66042;51.090;-115.340;2023-02-15T12:50:13;1.70;;;1.00;;
74538;SDS011;66042;51.090;-115.340;2023-02-15T12:52:49;1.50;;;0.50;;
74538;SDS011;66042;51.090;-115.340;2023-02-15T12:58:32;3.90;;;0.70;;
74538;SDS011;66042;51.090;-115.340;2023-02-15T13:01:15;1.10;;;0.60;;
74538;SDS011;66042;51.090;-115.340;2023-02-15T13:03:59;1.30;;;0.60;;
74538;SDS011;66042;51.090;-115.340;2023-02-15T13:06:33;3.30;;;0.70;;
74538;SDS011;66042;51.090;-115.340;2023-02-15T13:09:33;2.20;;;0.80;;
74538;SDS011;66042;51.090;-115.340;2023-02-15T13:12:27;7.40;;;0.60;;
74538;SDS011;66042;51.090;-115.340;2023-02-15T13:14:58;1.20;;;0.90;;
74538;SDS011;66042;51.090;-115.340;2023-02-15T13:17:32;0.90;;;0.50;;
74538;SDS011;66042;51.090;-115.340;2023-02-15T13:20:16;1.10;;;0.70;;
74538;SDS011;66042;51.090;-115.340;2023-02-15T13:22:50;0.90;;;0.50;;
74538;SDS011;66042;51.090;-115.340;2023-02-15T13:25:26;1.80;;;0.90;;
74538;SDS011;66042;51.090;-115.340;2023-02-15T13:28:03;1.90;;;0.70;;
74538;SDS011;66042;51.090;-115.340;2023-02-15T13:30:44;0.70;;;0.30;;
74538;SDS011;66042;51.090;-115.340;2023-02-15T13:33:27;2.00;;;0.90;;
74538;SDS011;66042;51.090;-115.340;2023-02-15T13:36:05;1.70;;;0.60;;
74538;SDS011;66042;51.090;-115.340;2023-02-15T13:50:51;2.20;;;0.80;;
74538;SDS011;66042;51.090;-115.340;2023-02-15T13:57:03;1.10;;;0.80;;
74538;SDS011;66042;51.090;-115.340;2023-02-15T14:15:42;1.60;;;1.00;;
74538;SDS011;66042;51.090;-115.340;2023-02-15T14:18:39;1.10;;;0.60;;
74538;SDS011;66042;51.090;-115.340;2023-02-15T14:29:38;2.40;;;0.70;;
74538;SDS011;66042;51.090;-115.340;2023-02-15T14:35:47;6.50;;;1.10;;
74538;SDS011;66042;51.090;-115.340;2023-02-15T14:41:23;1.70;;;1.10;;
74538;SDS011;66042;51.090;-115.340;2023-02-15T14:44:13;1.00;;;0.80;;
74538;SDS011;66042;51.090;-115.340;2023-02-15T14:49:37;4.30;;;0.70;;
74538;SDS011;66042;51.090;-115.340;2023-02-15T14:52:07;1.10;;;0.70;;
74538;SDS011;66042;51.090;-115.340;2023-02-15T14:59:50;2.10;;;1.10;;
74538;SDS011;66042;51.090;-115.340;2023-02-15T15:02:52;2.00;;;0.80;;
74538;SDS011;66042;51.090;-115.340;2023-02-15T15:05:24;2.50;;;1.10;;
74538;SDS011;66042;51.090;-115.340;2023-02-15T15:08:04;1.50;;;0.90;;
74538;SDS011;66042;51.090;-115.340;2023-02-15T15:10:41;1.30;;;0.80;;
74538;SDS011;66042;51.090;-115.340;2023-02-15T15:19:04;7.00;;;1.10;;
74538;SDS011;66042;51.090;-115.340;2023-02-15T15:27:39;3.30;;;1.00;;
74538;SDS011;66042;51.090;-115.340;2023-02-15T15:39:13;5.70;;;1.30;;
74538;SDS011;66042;51.090;-115.340;2023-02-15T15:42:21;1.10;;;0.60;;
74538;SDS011;66042;51.090;-115.340;2023-02-15T15:50:52;1.20;;;1.10;;
74538;SDS011;66042;51.090;-115.340;2023-02-15T15:53:25;3.50;;;1.20;;
74538;SDS011;66042;51.090;-115.340;2023-02-15T15:56:06;1.10;;;0.80;;
74538;SDS011;66042;51.090;-115.340;2023-02-15T15:58:48;4.30;;;0.90;;
74538;SDS011;66042;51.090;-115.340;2023-02-15T16:01:31;1.00;;;0.60;;
74538;SDS011;66042;51.090;-115.340;2023-02-15T16:04:04;1.20;;;0.70;;
74538;SDS011;66042;51.090;-115.340;2023-02-15T16:06:36;4.20;;;1.00;;
74538;SDS011;66042;51.090;-115.340;2023-02-15T16:09:18;4.00;;;0.90;;
74538;SDS011;66042;51.090;-115.340;2023-02-15T16:11:56;6.20;;;1.00;;
74538;SDS011;66042;51.090;-115.340;2023-02-15T16:14:36;2.10;;;0.80;;
74538;SDS011;66042;51.090;-115.340;2023-02-15T16:17:07;4.40;;;1.60;;
74538;SDS011;66042;51.090;-115.340;2023-02-15T16:19:43;1.50;;;0.60;;
74538;SDS011;66042;51.090;-115.340;2023-02-15T16:22:22;1.00;;;0.70;;
74538;SDS011;66042;51.090;-115.340;2023-02-15T16:28:07;9.60;;;0.80;;
74538;SDS011;66042;51.090;-115.340;2023-02-15T16:30:38;0.80;;;0.50;;
74538;SDS011;66042;51.090;-115.340;2023-02-15T16:33:10;13.20;;;1.50;;
74538;SDS011;66042;51.090;-115.340;2023-02-15T16:35:58;10.30;;;1.60;;
74538;SDS011;66042;51.090;-115.340;2023-02-15T16:41:31;1.10;;;0.80;;
74538;SDS011;66042;51.090;-115.340;2023-02-15T16:44:12;1.60;;;0.70;;
74538;SDS011;66042;51.090;-115.340;2023-02-15T16:46:51;3.80;;;0.70;;
74538;SDS011;66042;51.090;-115.340;2023-02-15T16:49:29;2.50;;;1.00;;
74538;SDS011;66042;51.090;-115.340;2023-02-15T16:52:04;4.00;;;0.80;;
74538;SDS011;66042;51.090;-115.340;2023-02-15T16:54:35;2.00;;;0.90;;
74538;SDS011;66042;51.090;-115.340;2023-02-15T16:57:02;3.50;;;1.00;;
74538;SDS011;66042;51.090;-115.340;2023-02-15T16:59:39;1.30;;;1.00;;
74538;SDS011;66042;51.090;-115.340;2023-02-15T17:02:16;3.20;;;0.90;;
74538;SDS011;66042;51.090;-115.340;2023-02-15T17:05:20;1.60;;;1.00;;
74538;SDS011;66042;51.090;-115.340;2023-02-15T17:08:15;2.50;;;1.10;;
74538;SDS011;66042;51.090;-115.340;2023-02-15T17:16:40;5.10;;;0.80;;
74538;SDS011;66042;51.090;-115.340;2023-02-15T17:19:31;3.00;;;0.80;;
74538;SDS011;66042;51.090;-115.340;2023-02-15T17:22:07;2.40;;;0.90;;
74538;SDS011;66042;51.090;-115.340;2023-02-15T17:24:44;1.60;;;1.10;;
74538;SDS011;66042;51.090;-115.340;2023-02-15T17:27:26;3.10;;;1.00;;
74538;SDS011;66042;51.090;-115.340;2023-02-15T17:29:57;2.70;;;0.80;;
74538;SDS011;66042;51.090;-115.340;2023-02-15T17:32:53;1.80;;;0.70;;
74538;SDS011;66042;51.090;-115.340;2023-02-15T17:35:32;1.80;;;0.80;;
74538;SDS011;66042;51.090;-115.340;2023-02-15T17:40:46;1.80;;;0.70;;
74538;SDS011;66042;51.090;-115.340;2023-02-15T17:43:13;8.00;;;0.90;;
74538;SDS011;66042;51.090;-115.340;2023-02-15T17:45:46;2.20;;;0.90;;
74538;SDS011;66042;51.090;-115.340;2023-02-15T17:48:34;3.60;;;0.60;;
74538;SDS011;66042;51.090;-115.340;2023-02-15T17:51:04;14.50;;;0.90;;
74538;SDS011;66042;51.090;-115.340;2023-02-15T17:53:33;1.70;;;0.80;;
74538;SDS011;66042;51.090;-115.340;2023-02-15T17:56:00;1.20;;;0.60;;
74538;SDS011;66042;51.090;-115.340;2023-02-15T17:58:36;3.90;;;0.60;;
74538;SDS011;66042;51.090;-115.340;2023-02-15T18:01:10;5.70;;;0.90;;